Terminal Aerodrome Forecast
Issued by NWS

Home | Current Version | Previous Version | Text Only | Print | Product List | Glossary Off
Versions: 1 2 3 4 5 6 7 8 9 10 11 12 13 14 15 16 17

000
FTUS42 KMHX 271120
TAFPGV
TAF
KPGV 271120Z 2712/2812 VRB04KT 6SM BR BKN005
      TEMPO 2712/2713 P6SM NSW SCT003
     FM271400 19012KT P6SM VCSH SCT030 BKN050
     FM271800 20011G19KT P6SM VCTS BKN035CB
     FM280000 21009KT P6SM VCTS BKN030CB
      AMD LTD TO CLD VIS AND WIND=

USA.gov is the U.S. government's official web portal to all federal, state and local government web resources and services.